Time;durP1;ratioP1;P1;durP2;ratioP2;P2;SDS_P1;SDS_P2;PMS_P1;PMS_P2;Temp;Humidity;BMP_temperature;BMP_pressure;BME280_temperature;BME280_humidity;BME280_pressure;Samples;Min_cycle;Max_cycle;Signal;HPM_P1;HPM_P2
2023/02/17 00:02:19;;;;;;;15.20;13.85;;;;;;;;;;4996455;28;20537;-55
2023/02/17 00:04:45;;;;;;;13.73;12.68;;;;;;;;;;4994427;28;20535;-55
2023/02/17 00:07:10;;;;;;;13.98;13.07;;;;;;;;;;4998359;28;20401;-55
2023/02/17 00:09:36;;;;;;;13.73;12.82;;;;;;;;;;4997581;28;20517;-55
2023/02/17 00:12:01;;;;;;;14.32;13.40;;;;;;;;;;4999188;28;20031;-55
2023/02/17 00:14:26;;;;;;;15.13;14.05;;;;;;;;;;4996629;28;20586;-54
2023/02/17 00:16:51;;;;;;;13.05;12.15;;;;;;;;;;4997492;28;20061;-56
2023/02/17 00:19:23;;;;;;;13.52;12.68;;;;;;;;;;4997953;28;20069;-55
2023/02/17 00:21:50;;;;;;;15.10;14.10;;;;;;;;;;4996907;28;20124;-55
2023/02/17 00:24:15;;;;;;;14.05;13.10;;;;;;;;;;4995735;28;20117;-57
2023/02/17 00:26:41;;;;;;;16.70;15.65;;;;;;;;;;4996187;28;20141;-57
2023/02/17 00:29:06;;;;;;;15.25;13.90;;;;;;;;;;4997186;28;20486;-55
2023/02/17 00:31:32;;;;;;;15.73;14.70;;;;;;;;;;4997848;28;20034;-56
2023/02/17 00:33:57;;;;;;;15.38;14.30;;;;;;;;;;4996380;28;20357;-56
2023/02/17 00:36:23;;;;;;;16.50;15.40;;;;;;;;;;4997624;28;20357;-56
2023/02/17 00:38:49;;;;;;;15.38;14.48;;;;;;;;;;4996323;28;20041;-56
2023/02/17 00:41:18;;;;;;;13.75;12.77;;;;;;;;;;4994185;28;20498;-56
2023/02/17 00:43:44;;;;;;;14.65;13.75;;;;;;;;;;4996190;28;20117;-56
2023/02/17 00:46:09;;;;;;;15.77;14.73;;;;;;;;;;4996204;28;20129;-56
2023/02/17 00:48:34;;;;;;;16.70;15.38;;;;;;;;;;4996813;28;20598;-55
2023/02/17 00:51:00;;;;;;;13.63;12.82;;;;;;;;;;4995026;28;20041;-55
2023/02/17 00:53:26;;;;;;;14.98;14.10;;;;;;;;;;4993631;28;20561;-55
2023/02/17 00:55:51;;;;;;;13.85;13.00;;;;;;;;;;4994944;28;20101;-55
2023/02/17 00:58:16;;;;;;;14.13;13.23;;;;;;;;;;4998542;28;20108;-56
2023/02/17 01:00:42;;;;;;;15.32;14.32;;;;;;;;;;4998238;28;20030;-55
2023/02/17 01:03:07;;;;;;;13.85;13.02;;;;;;;;;;4993957;28;20065;-57
2023/02/17 01:05:33;;;;;;;15.50;14.50;;;;;;;;;;4993301;28;20342;-56
2023/02/17 01:07:58;;;;;;;15.23;14.32;;;;;;;;;;4997643;28;20082;-56
2023/02/17 01:10:24;;;;;;;13.77;12.88;;;;;;;;;;4995592;28;20034;-57
2023/02/17 01:12:49;;;;;;;15.02;14.05;;;;;;;;;;4995682;28;20037;-57
2023/02/17 01:15:15;;;;;;;13.93;13.05;;;;;;;;;;4995723;28;20388;-57
2023/02/17 01:17:40;;;;;;;14.45;13.65;;;;;;;;;;4994201;28;20055;-57
2023/02/17 01:20:06;;;;;;;14.63;13.73;;;;;;;;;;4995129;28;20037;-57
2023/02/17 01:22:32;;;;;;;15.75;14.63;;;;;;;;;;4996125;28;20030;-57
2023/02/17 01:24:57;;;;;;;14.15;13.15;;;;;;;;;;4996210;28;20088;-57
2023/02/17 01:27:23;;;;;;;13.60;12.70;;;;;;;;;;4992982;28;20417;-57
2023/02/17 01:29:48;;;;;;;14.52;13.35;;;;;;;;;;4997272;28;20037;-57
2023/02/17 01:32:13;;;;;;;13.43;12.52;;;;;;;;;;4995781;28;20042;-57
2023/02/17 01:34:39;;;;;;;15.23;14.23;;;;;;;;;;4994444;28;20045;-57
2023/02/17 01:37:04;;;;;;;13.35;12.55;;;;;;;;;;4994103;28;20460;-56
2023/02/17 01:39:29;;;;;;;12.43;11.63;;;;;;;;;;4995751;28;20038;-57
2023/02/17 01:41:55;;;;;;;13.43;12.63;;;;;;;;;;4994801;28;20368;-56
2023/02/17 01:44:22;;;;;;;13.75;12.82;;;;;;;;;;4994110;28;20052;-56
2023/02/17 01:46:50;;;;;;;14.30;13.18;;;;;;;;;;4994859;28;20030;-56
2023/02/17 01:49:29;;;;;;;14.50;13.57;;;;;;;;;;4996208;28;20053;-55
2023/02/17 01:52:10;;;;;;;13.05;12.25;;;;;;;;;;4994836;28;20045;-56
2023/02/17 01:54:44;;;;;;;13.48;12.68;;;;;;;;;;4995913;28;20040;-56
2023/02/17 01:57:12;;;;;;;14.50;13.60;;;;;;;;;;4996092;28;20415;-56
2023/02/17 01:59:38;;;;;;;14.70;13.80;;;;;;;;;;4994425;28;20038;-56
2023/02/17 02:02:05;;;;;;;14.43;13.52;;;;;;;;;;4995227;28;20093;-56
2023/02/17 02:04:34;;;;;;;14.10;13.20;;;;;;;;;;5002844;28;20507;-56
2023/02/17 02:07:01;;;;;;;13.52;12.68;;;;;;;;;;4996603;28;20388;-56
2023/02/17 02:09:41;;;;;;;15.50;14.48;;;;;;;;;;4994160;28;20038;-55
2023/02/17 02:12:23;;;;;;;13.63;12.83;;;;;;;;;;4992684;28;20516;-55
2023/02/17 02:14:49;;;;;;;14.23;13.32;;;;;;;;;;4995021;28;20092;-55
2023/02/17 02:17:39;;;;;;;14.15;13.30;;;;;;;;;;4995680;28;20049;-57
2023/02/17 02:20:21;;;;;;;15.13;14.13;;;;;;;;;;4993717;28;20049;-56
2023/02/17 02:22:59;;;;;;;14.73;13.48;;;;;;;;;;4998903;28;20034;-57
2023/02/17 02:25:30;;;;;;;13.65;12.85;;;;;;;;;;4994230;28;20042;-57
2023/02/17 02:28:21;;;;;;;15.43;14.32;;;;;;;;;;4993018;28;20042;-55
2023/02/17 02:31:10;;;;;;;;;;;;;;;;;;4996113;28;20038;-54
2023/02/17 02:34:01;;;;;;;13.32;12.50;;;;;;;;;;4991029;28;20582;-54
2023/02/17 02:36:36;;;;;;;15.23;14.23;;;;;;;;;;4991236;28;20137;-53
2023/02/17 02:39:24;;;;;;;15.25;14.20;;;;;;;;;;4994069;28;20341;-52
2023/02/17 02:41:54;;;;;;;14.90;13.90;;;;;;;;;;4994491;28;20475;-48
2023/02/17 02:44:20;;;;;;;13.90;13.00;;;;;;;;;;4995498;28;20052;-46
2023/02/17 02:46:59;;;;;;;14.55;13.65;;;;;;;;;;4993905;28;20122;-49
2023/02/17 02:49:25;;;;;;;15.65;14.65;;;;;;;;;;4994571;28;20045;-48
2023/02/17 02:52:15;;;;;;;16.00;15.00;;;;;;;;;;4997236;28;20120;-46
2023/02/17 02:55:15;;;;;;;15.73;14.77;;;;;;;;;;4986075;28;20129;-49
2023/02/17 02:57:58;;;;;;;16.42;14.90;;;;;;;;;;4987322;28;20046;-46
2023/02/17 03:00:37;;;;;;;16.17;15.10;;;;;;;;;;4991638;28;20475;-47
2023/02/17 03:03:18;;;;;;;15.63;14.63;;;;;;;;;;4994355;28;20042;-47
2023/02/17 03:06:11;;;;;;;15.88;14.88;;;;;;;;;;4994743;28;20038;-48
2023/02/17 03:08:41;;;;;;;15.38;14.48;;;;;;;;;;4993541;28;20062;-46
2023/02/17 03:11:07;;;;;;;16.42;15.32;;;;;;;;;;4994475;28;20072;-50
2023/02/17 03:13:38;;;;;;;15.30;14.40;;;;;;;;;;4993807;28;20058;-47
2023/02/17 03:16:04;;;;;;;16.23;15.23;;;;;;;;;;4994224;28;20100;-51
2023/02/17 03:18:31;;;;;;;16.30;15.30;;;;;;;;;;4990634;28;20100;-50
2023/02/17 03:21:05;;;;;;;17.13;16.02;;;;;;;;;;4995176;28;20022;-47
2023/02/17 03:23:30;;;;;;;15.88;14.85;;;;;;;;;;4994802;28;20030;-46
2023/02/17 03:25:57;;;;;;;15.48;14.48;;;;;;;;;;4993475;28;20092;-48
2023/02/17 03:28:23;;;;;;;16.73;15.73;;;;;;;;;;4993441;28;20038;-48
2023/02/17 03:30:48;;;;;;;17.50;16.50;;;;;;;;;;4991700;28;20374;-48
2023/02/17 03:33:13;;;;;;;16.95;15.85;;;;;;;;;;4985093;28;20041;-48
2023/02/17 03:35:39;;;;;;;16.90;15.90;;;;;;;;;;4995890;28;20523;-50
2023/02/17 03:38:05;;;;;;;18.58;16.35;;;;;;;;;;4993389;28;20045;-50
2023/02/17 03:40:30;;;;;;;15.90;14.98;;;;;;;;;;4992891;28;20041;-49
2023/02/17 03:42:56;;;;;;;16.40;15.40;;;;;;;;;;4993570;28;20429;-51
2023/02/17 03:45:22;;;;;;;15.75;14.75;;;;;;;;;;5002199;28;20038;-51
2023/02/17 03:47:47;;;;;;;14.95;14.05;;;;;;;;;;4993067;28;20049;-47
2023/02/17 03:50:12;;;;;;;15.70;14.77;;;;;;;;;;4992317;28;20045;-51
2023/02/17 03:52:38;;;;;;;17.50;16.50;;;;;;;;;;4996454;28;20034;-50
2023/02/17 03:55:03;;;;;;;17.83;16.65;;;;;;;;;;4995892;28;20137;-49
2023/02/17 03:57:30;;;;;;;15.65;14.75;;;;;;;;;;4992167;28;20466;-51
2023/02/17 03:59:56;;;;;;;17.80;16.50;;;;;;;;;;4991292;28;20361;-48
2023/02/17 04:02:21;;;;;;;17.58;16.42;;;;;;;;;;4992477;28;20104;-51
2023/02/17 04:04:46;;;;;;;18.42;17.30;;;;;;;;;;4993573;28;20088;-52
2023/02/17 04:07:12;;;;;;;17.52;16.33;;;;;;;;;;4992827;28;20057;-52
2023/02/17 04:09:37;;;;;;;17.10;16.10;;;;;;;;;;4992569;28;20574;-50
2023/02/17 04:12:03;;;;;;;18.23;17.02;;;;;;;;;;4994468;28;20038;-52
2023/02/17 04:14:28;;;;;;;16.83;15.88;;;;;;;;;;4991986;28;20034;-52
2023/02/17 04:16:54;;;;;;;16.02;15.02;;;;;;;;;;4996782;28;20096;-51
2023/02/17 04:19:19;;;;;;;16.08;15.18;;;;;;;;;;4995250;28;20053;-51
2023/02/17 04:21:44;;;;;;;16.13;15.18;;;;;;;;;;4999749;28;20045;-51
2023/02/17 04:24:10;;;;;;;17.27;16.20;;;;;;;;;;4996616;28;20535;-51
2023/02/17 04:26:35;;;;;;;15.75;14.73;;;;;;;;;;4999662;28;20038;-50
2023/02/17 04:29:03;;;;;;;16.83;15.75;;;;;;;;;;4995748;28;20046;-47
2023/02/17 04:31:28;;;;;;;16.80;15.80;;;;;;;;;;4997214;28;20420;-47
2023/02/17 04:33:54;;;;;;;16.60;15.60;;;;;;;;;;4994043;28;20034;-51
2023/02/17 04:36:19;;;;;;;17.27;16.27;;;;;;;;;;4997381;28;20527;-51
2023/02/17 04:38:44;;;;;;;18.85;17.73;;;;;;;;;;4996271;28;20038;-50
2023/02/17 04:41:10;;;;;;;17.33;16.33;;;;;;;;;;4996162;28;20750;-51
2023/02/17 04:43:35;;;;;;;17.52;16.42;;;;;;;;;;4997094;28;20100;-52
2023/02/17 04:46:01;;;;;;;19.15;18.10;;;;;;;;;;4991889;28;20045;-50
2023/02/17 04:48:27;;;;;;;19.98;18.65;;;;;;;;;;4997857;28;20046;-52
2023/02/17 04:50:52;;;;;;;20.65;19.33;;;;;;;;;;4997585;28;20030;-52
2023/02/17 04:53:18;;;;;;;19.73;18.52;;;;;;;;;;4994936;28;20045;-50
2023/02/17 04:55:46;;;;;;;19.95;18.85;;;;;;;;;;4999708;28;20042;-51
2023/02/17 04:58:11;;;;;;;20.42;19.23;;;;;;;;;;4996492;28;20042;-53
2023/02/17 05:00:37;;;;;;;18.88;17.88;;;;;;;;;;4996464;28;20030;-50
2023/02/17 05:03:02;;;;;;;21.25;19.85;;;;;;;;;;4999182;28;20034;-49
2023/02/17 05:05:28;;;;;;;22.17;20.98;;;;;;;;;;4994425;28;20116;-52
2023/02/17 05:07:54;;;;;;;21.58;20.38;;;;;;;;;;4994458;28;20046;-51
2023/02/17 05:10:19;;;;;;;23.70;22.40;;;;;;;;;;4996221;28;20119;-52
2023/02/17 05:12:45;;;;;;;20.73;19.63;;;;;;;;;;4998686;28;20030;-51
2023/02/17 05:15:11;;;;;;;23.00;21.70;;;;;;;;;;4994392;28;20042;-49
2023/02/17 05:17:37;;;;;;;23.65;22.35;;;;;;;;;;4992087;28;20096;-58
2023/02/17 05:20:03;;;;;;;25.80;24.02;;;;;;;;;;4995849;28;20057;-56
2023/02/17 05:22:28;;;;;;;23.63;22.33;;;;;;;;;;4993436;28;21273;-58
2023/02/17 05:24:54;;;;;;;23.85;22.35;;;;;;;;;;4995768;28;20046;-59
2023/02/17 05:27:19;;;;;;;23.73;22.42;;;;;;;;;;4995715;28;20047;-55
2023/02/17 05:29:45;;;;;;;21.80;20.60;;;;;;;;;;4996594;28;20037;-50
2023/02/17 05:32:10;;;;;;;23.40;22.13;;;;;;;;;;4995213;28;20489;-55
2023/02/17 05:34:36;;;;;;;23.02;21.73;;;;;;;;;;4995116;28;20439;-48
2023/02/17 05:37:02;;;;;;;26.45;25.05;;;;;;;;;;4995743;28;20038;-49
2023/02/17 05:39:27;;;;;;;23.70;22.30;;;;;;;;;;4994890;28;20124;-48
2023/02/17 05:41:53;;;;;;;21.90;20.70;;;;;;;;;;4996111;28;20034;-48
2023/02/17 05:44:18;;;;;;;23.08;21.85;;;;;;;;;;4995668;28;20045;-50
2023/02/17 05:46:43;;;;;;;22.98;21.77;;;;;;;;;;4994582;28;20026;-51
2023/02/17 05:49:09;;;;;;;22.08;20.88;;;;;;;;;;4994403;28;20042;-58
2023/02/17 05:51:34;;;;;;;24.08;22.67;;;;;;;;;;4993807;28;20030;-57
2023/02/17 05:53:59;;;;;;;24.55;23.25;;;;;;;;;;4994204;28;20038;-56
2023/02/17 05:56:25;;;;;;;22.00;20.80;;;;;;;;;;4992937;28;20618;-57
2023/02/17 05:58:50;;;;;;;21.88;20.67;;;;;;;;;;4993471;28;20041;-57
2023/02/17 06:01:15;;;;;;;23.40;22.15;;;;;;;;;;4991514;28;20030;-54
2023/02/17 06:03:41;;;;;;;20.45;19.35;;;;;;;;;;4991495;28;20801;-48
2023/02/17 06:06:07;;;;;;;21.98;20.77;;;;;;;;;;4994037;28;20038;-50
2023/02/17 06:08:33;;;;;;;20.88;19.67;;;;;;;;;;4994206;28;20393;-50
2023/02/17 06:10:59;;;;;;;22.73;21.45;;;;;;;;;;4997175;28;20459;-48
2023/02/17 06:13:24;;;;;;;22.35;21.15;;;;;;;;;;4994580;28;20045;-50
2023/02/17 06:15:49;;;;;;;23.75;22.45;;;;;;;;;;4992970;28;20138;-51
2023/02/17 06:18:15;;;;;;;22.73;21.45;;;;;;;;;;4996981;28;20030;-49
2023/02/17 06:20:40;;;;;;;20.90;19.80;;;;;;;;;;4996807;28;20104;-52
2023/02/17 06:23:06;;;;;;;21.15;19.95;;;;;;;;;;4994440;28;20041;-49
2023/02/17 06:25:31;;;;;;;20.35;19.25;;;;;;;;;;4995466;28;20045;-47
2023/02/17 06:27:57;;;;;;;21.15;19.95;;;;;;;;;;4994066;28;20038;-50
2023/02/17 06:30:22;;;;;;;22.77;21.48;;;;;;;;;;4993622;28;20042;-48
2023/02/17 06:32:48;;;;;;;21.38;20.17;;;;;;;;;;4995299;28;20140;-48
2023/02/17 06:35:14;;;;;;;22.38;21.17;;;;;;;;;;4996724;28;20038;-49
2023/02/17 06:37:39;;;;;;;18.65;17.60;;;;;;;;;;4992888;28;20038;-52
2023/02/17 06:40:05;;;;;;;21.45;20.25;;;;;;;;;;4995571;28;20051;-52
2023/02/17 06:42:31;;;;;;;21.73;20.52;;;;;;;;;;4995437;28;20045;-52
2023/02/17 06:44:56;;;;;;;21.45;20.25;;;;;;;;;;4995642;28;20144;-51
2023/02/17 06:47:21;;;;;;;23.42;22.20;;;;;;;;;;4994685;28;20452;-51
2023/02/17 06:49:47;;;;;;;22.77;21.45;;;;;;;;;;4992528;28;20034;-48
2023/02/17 06:52:12;;;;;;;21.73;20.52;;;;;;;;;;4992752;28;20060;-50
2023/02/17 06:54:37;;;;;;;21.98;20.77;;;;;;;;;;4991988;28;20041;-49
2023/02/17 06:57:03;;;;;;;22.38;21.17;;;;;;;;;;4995379;28;20456;-52
2023/02/17 06:59:30;;;;;;;21.85;20.65;;;;;;;;;;4991974;28;20524;-51
2023/02/17 07:01:56;;;;;;;20.77;19.67;;;;;;;;;;4994829;28;20030;-51
2023/02/17 07:04:21;;;;;;;20.65;19.55;;;;;;;;;;4992517;28;20049;-52
2023/02/17 07:06:47;;;;;;;21.60;20.40;;;;;;;;;;4995811;28;20042;-49
2023/02/17 07:09:12;;;;;;;22.55;21.35;;;;;;;;;;4994710;28;20037;-51
2023/02/17 07:11:38;;;;;;;21.17;20.00;;;;;;;;;;4995293;28;20042;-55
2023/02/17 07:14:04;;;;;;;21.30;20.15;;;;;;;;;;4994756;28;20077;-52
2023/02/17 07:16:29;;;;;;;20.58;19.40;;;;;;;;;;4988954;28;20049;-51
2023/02/17 07:18:54;;;;;;;22.58;21.38;;;;;;;;;;4993890;28;20030;-56
2023/02/17 07:21:20;;;;;;;21.38;20.17;;;;;;;;;;4991840;28;20442;-53
2023/02/17 07:23:45;;;;;;;22.65;21.45;;;;;;;;;;4996031;28;20031;-53
2023/02/17 07:26:11;;;;;;;20.42;19.33;;;;;;;;;;4992434;28;20050;-57
2023/02/17 07:28:37;;;;;;;21.10;19.90;;;;;;;;;;4992646;28;20113;-56
2023/02/17 07:31:08;;;;;;;22.88;21.65;;;;;;;;;;4995465;28;20053;-54
2023/02/17 07:33:34;;;;;;;22.25;21.05;;;;;;;;;;4992025;28;20043;-56
2023/02/17 07:35:59;;;;;;;23.38;22.10;;;;;;;;;;4990388;28;20415;-56
2023/02/17 07:38:25;;;;;;;20.35;19.25;;;;;;;;;;4988693;28;20536;-56
2023/02/17 07:40:50;;;;;;;20.73;19.58;;;;;;;;;;4991496;28;20034;-55
2023/02/17 07:43:15;;;;;;;22.42;21.23;;;;;;;;;;4993743;28;20680;-52
2023/02/17 07:45:40;;;;;;;21.92;20.73;;;;;;;;;;4987127;28;20449;-51
2023/02/17 07:48:06;;;;;;;21.45;20.25;;;;;;;;;;4986549;28;20038;-56
2023/02/17 07:50:31;;;;;;;20.00;18.90;;;;;;;;;;4991318;28;20025;-55
2023/02/17 07:52:57;;;;;;;21.58;20.38;;;;;;;;;;5002623;28;20044;-49
2023/02/17 07:55:23;;;;;;;21.63;20.42;;;;;;;;;;4993225;28;20041;-49
2023/02/17 07:57:48;;;;;;;21.10;20.00;;;;;;;;;;4995752;28;20069;-50
2023/02/17 08:00:14;;;;;;;20.42;19.33;;;;;;;;;;4996764;28;20534;-51
2023/02/17 08:02:40;;;;;;;21.83;20.63;;;;;;;;;;4996728;28;20038;-50
2023/02/17 08:05:05;;;;;;;20.17;19.08;;;;;;;;;;4996000;28;20035;-49
2023/02/17 08:07:31;;;;;;;22.92;21.73;;;;;;;;;;4991733;28;20080;-56
2023/02/17 08:15:15;;;;;;;19.58;18.42;;;;;;;;;;4994843;28;20423;-56
2023/02/17 08:17:40;;;;;;;18.45;17.45;;;;;;;;;;4993039;28;20038;-56
2023/02/17 08:20:06;;;;;;;18.63;17.63;;;;;;;;;;4995058;28;20459;-52
2023/02/17 08:22:32;;;;;;;18.00;17.00;;;;;;;;;;4986721;28;20038;-52
2023/02/17 08:24:57;;;;;;;17.40;16.40;;;;;;;;;;4993541;28;20096;-52
2023/02/17 08:27:23;;;;;;;17.52;16.48;;;;;;;;;;4994852;28;20041;-53
2023/02/17 08:29:48;;;;;;;16.77;15.77;;;;;;;;;;4996978;28;20030;-58
2023/02/17 08:32:15;;;;;;;16.48;15.57;;;;;;;;;;4994549;28;20038;-57
2023/02/17 08:34:40;;;;;;;17.15;16.17;;;;;;;;;;4995942;28;20034;-53
2023/02/17 08:37:06;;;;;;;16.23;15.30;;;;;;;;;;4995254;28;20030;-52
2023/02/17 08:39:33;;;;;;;16.90;15.90;;;;;;;;;;4997032;28;20046;-49
2023/02/17 08:41:59;;;;;;;14.88;14.02;;;;;;;;;;4994853;28;20069;-50
2023/02/17 08:44:25;;;;;;;15.98;15.00;;;;;;;;;;4995706;28;20065;-49
2023/02/17 08:46:52;;;;;;;15.43;14.52;;;;;;;;;;4995151;28;20066;-55
2023/02/17 08:49:20;;;;;;;15.90;14.85;;;;;;;;;;4993987;28;20030;-55
2023/02/17 08:51:46;;;;;;;15.38;14.48;;;;;;;;;;4995384;28;20042;-49
2023/02/17 08:54:13;;;;;;;16.00;15.07;;;;;;;;;;4981741;28;20042;-50
2023/02/17 08:56:39;;;;;;;16.38;15.48;;;;;;;;;;4994865;28;20074;-51
2023/02/17 08:59:06;;;;;;;15.05;14.18;;;;;;;;;;4995383;28;20038;-50
2023/02/17 09:01:33;;;;;;;16.50;15.50;;;;;;;;;;4994154;28;20099;-49
2023/02/17 09:04:00;;;;;;;17.45;16.48;;;;;;;;;;4996525;28;20038;-51
2023/02/17 09:06:52;;;;;;;17.10;16.15;;;;;;;;;;4991611;28;20435;-47
2023/02/17 09:09:21;;;;;;;17.45;16.45;;;;;;;;;;4992497;28;20079;-51
2023/02/17 09:11:47;;;;;;;17.55;16.55;;;;;;;;;;4996160;28;20183;-52
2023/02/17 09:14:12;;;;;;;18.38;17.35;;;;;;;;;;4994920;28;20085;-55
2023/02/17 09:16:39;;;;;;;19.35;18.25;;;;;;;;;;4995670;28;20353;-55
2023/02/17 09:19:05;;;;;;;20.30;19.20;;;;;;;;;;4997604;28;20092;-55
2023/02/17 09:21:31;;;;;;;19.80;18.70;;;;;;;;;;4996590;28;20049;-55
2023/02/17 09:23:56;;;;;;;20.45;19.35;;;;;;;;;;4996490;28;20038;-55
2023/02/17 09:26:22;;;;;;;20.42;19.23;;;;;;;;;;4994783;28;20030;-56
2023/02/17 09:28:47;;;;;;;20.23;19.13;;;;;;;;;;4997624;28;20038;-58
2023/02/17 09:31:15;;;;;;;21.05;19.85;;;;;;;;;;4999792;28;20038;-59
2023/02/17 09:33:41;;;;;;;23.25;21.95;;;;;;;;;;4994837;28;20034;-57
2023/02/17 09:36:09;;;;;;;24.58;23.23;;;;;;;;;;4995676;28;20038;-50
2023/02/17 09:38:37;;;;;;;21.63;20.42;;;;;;;;;;4994477;28;20050;-54
2023/02/17 09:41:26;;;;;;;20.40;19.30;;;;;;;;;;4994769;28;20122;-51
2023/02/17 09:43:53;;;;;;;21.40;20.20;;;;;;;;;;4994808;28;20042;-56
2023/02/17 09:46:34;;;;;;;21.55;20.25;;;;;;;;;;4998414;28;20099;-57
2023/02/17 09:49:10;;;;;;;22.58;20.88;;;;;;;;;;4995613;28;20129;-56
2023/02/17 09:51:42;;;;;;;22.80;21.58;;;;;;;;;;4995927;28;20643;-52
2023/02/17 09:54:29;;;;;;;24.67;23.38;;;;;;;;;;4992793;28;20045;-50
2023/02/17 09:56:56;;;;;;;23.75;22.42;;;;;;;;;;4996464;28;20039;-56
2023/02/17 09:59:41;;;;;;;21.58;20.38;;;;;;;;;;4995386;28;20030;-56
2023/02/17 10:02:18;;;;;;;21.83;20.52;;;;;;;;;;4996299;28;20057;-56
2023/02/17 10:04:47;;;;;;;18.73;17.63;;;;;;;;;;4993753;28;20053;-57
2023/02/17 10:07:18;;;;;;;20.02;18.80;;;;;;;;;;4994258;28;20053;-55
2023/02/17 10:09:51;;;;;;;19.25;18.15;;;;;;;;;;4997145;28;20030;-50
2023/02/17 10:12:29;;;;;;;18.42;17.38;;;;;;;;;;4996707;28;20228;-50
2023/02/17 10:15:21;;;;;;;21.73;20.45;;;;;;;;;;4996480;28;20484;-49
2023/02/17 10:17:56;;;;;;;19.65;18.45;;;;;;;;;;4995442;28;21593;-56
2023/02/17 10:20:27;;;;;;;18.27;17.27;;;;;;;;;;4993656;28;20476;-58
2023/02/17 10:23:03;;;;;;;18.10;17.10;;;;;;;;;;4991943;28;20100;-52
2023/02/17 10:25:51;;;;;;;19.02;17.92;;;;;;;;;;4993339;28;20045;-56
2023/02/17 10:28:29;;;;;;;19.45;18.08;;;;;;;;;;4985529;28;20388;-57
2023/02/17 10:31:02;;;;;;;21.52;20.13;;;;;;;;;;4995102;28;20037;-48
2023/02/17 10:33:35;;;;;;;20.90;19.75;;;;;;;;;;4997749;28;20065;-49
2023/02/17 10:36:17;;;;;;;19.30;18.20;;;;;;;;;;4996395;28;20734;-51
2023/02/17 10:39:07;;;;;;;20.23;19.13;;;;;;;;;;4994480;28;20061;-56
2023/02/17 10:41:36;;;;;;;20.55;19.42;;;;;;;;;;4988447;28;20381;-56
2023/02/17 10:44:07;;;;;;;20.20;19.05;;;;;;;;;;4994105;28;20034;-57
2023/02/17 10:46:33;;;;;;;20.90;19.70;;;;;;;;;;4995118;28;20431;-57
2023/02/17 10:48:59;;;;;;;19.90;18.80;;;;;;;;;;4994779;28;20452;-57
2023/02/17 10:51:28;;;;;;;22.52;21.20;;;;;;;;;;4994186;28;20037;-56
2023/02/17 10:53:59;;;;;;;20.13;19.02;;;;;;;;;;4994471;28;20025;-49
2023/02/17 10:56:43;;;;;;;19.50;18.42;;;;;;;;;;4992412;28;20140;-58
2023/02/17 10:59:22;;;;;;;19.42;18.23;;;;;;;;;;4992624;28;20048;-56
2023/02/17 11:01:48;;;;;;;19.85;18.55;;;;;;;;;;4992031;28;20073;-57
2023/02/17 11:04:14;;;;;;;18.48;17.42;;;;;;;;;;4993988;28;20053;-57
2023/02/17 11:06:56;;;;;;;21.92;20.63;;;;;;;;;;4991829;28;20045;-56
2023/02/17 11:09:28;;;;;;;20.80;19.65;;;;;;;;;;4994960;28;20132;-58
2023/02/17 11:12:11;;;;;;;17.02;16.02;;;;;;;;;;4992207;28;20100;-57
2023/02/17 11:14:44;;;;;;;17.23;16.23;;;;;;;;;;4992012;28;20057;-51
2023/02/17 11:17:28;;;;;;;15.55;14.65;;;;;;;;;;4994723;28;20468;-50
2023/02/17 11:19:57;;;;;;;14.98;14.10;;;;;;;;;;4990942;28;20101;-57
2023/02/17 11:22:39;;;;;;;16.23;15.32;;;;;;;;;;4993807;28;20045;-50
2023/02/17 11:25:29;;;;;;;14.55;13.75;;;;;;;;;;4995094;28;20360;-57
2023/02/17 11:27:57;;;;;;;15.48;14.57;;;;;;;;;;4997006;28;20124;-56
2023/02/17 11:30:23;;;;;;;13.20;12.40;;;;;;;;;;4998884;28;20430;-52
2023/02/17 11:32:49;;;;;;;13.60;12.80;;;;;;;;;;4998106;28;20034;-52
2023/02/17 11:35:46;;;;;;;14.05;13.25;;;;;;;;;;4998992;28;20042;-51
2023/02/17 11:38:13;;;;;;;12.20;11.50;;;;;;;;;;4997744;28;20049;-56
2023/02/17 11:40:39;;;;;;;14.27;13.43;;;;;;;;;;4998594;28;20243;-57
2023/02/17 11:43:05;;;;;;;12.77;11.98;;;;;;;;;;5000149;28;20113;-56
2023/02/17 11:45:42;;;;;;;13.73;12.93;;;;;;;;;;4998875;28;20042;-49
2023/02/17 11:48:29;;;;;;;11.80;11.10;;;;;;;;;;4997510;28;20123;-56
2023/02/17 11:51:01;;;;;;;12.30;11.50;;;;;;;;;;4996937;28;20041;-55
2023/02/17 11:53:53;;;;;;;11.57;10.88;;;;;;;;;;4996253;28;20042;-56
2023/02/17 11:56:28;;;;;;;14.35;13.55;;;;;;;;;;4999262;28;20112;-57
2023/02/17 11:59:34;;;;;;;12.35;11.63;;;;;;;;;;4997699;28;20665;-57
2023/02/17 12:02:37;;;;;;;12.20;11.40;;;;;;;;;;4998105;28;20044;-56
2023/02/17 12:05:19;;;;;;;12.25;11.45;;;;;;;;;;4997726;28;20041;-56
2023/02/17 12:08:22;;;;;;;11.65;10.88;;;;;;;;;;4997863;28;20038;-51
2023/02/17 12:11:05;;;;;;;12.10;11.40;;;;;;;;;;4995915;28;20041;-57
2023/02/17 12:13:46;;;;;;;11.98;11.27;;;;;;;;;;4997934;28;20052;-56
2023/02/17 12:16:23;;;;;;;13.38;12.57;;;;;;;;;;4995573;28;20164;-57
2023/02/17 12:19:00;;;;;;;12.75;11.98;;;;;;;;;;4995598;28;20133;-55
2023/02/17 12:22:01;;;;;;;12.52;11.80;;;;;;;;;;4997712;28;20125;-56
2023/02/17 12:24:47;;;;;;;13.07;12.30;;;;;;;;;;4997187;28;20049;-51
2023/02/17 12:27:39;;;;;;;13.57;12.77;;;;;;;;;;5000297;28;20117;-55
2023/02/17 12:30:31;;;;;;;12.85;12.15;;;;;;;;;;4994615;28;20431;-56
2023/02/17 12:33:30;;;;;;;12.55;11.85;;;;;;;;;;4999517;28;20034;-56
2023/02/17 12:36:01;;;;;;;13.50;12.70;;;;;;;;;;4994933;28;20790;-55
2023/02/17 12:38:35;;;;;;;13.13;12.38;;;;;;;;;;4996354;28;20037;-56
2023/02/17 12:41:24;;;;;;;13.73;12.93;;;;;;;;;;4997979;28;20061;-56
2023/02/17 12:43:55;;;;;;;13.88;13.07;;;;;;;;;;4998721;28;20052;-56
2023/02/17 12:46:37;;;;;;;13.98;13.18;;;;;;;;;;4995362;28;20543;-51
2023/02/17 12:49:11;;;;;;;14.27;13.40;;;;;;;;;;4999502;28;20038;-52
2023/02/17 12:51:47;;;;;;;13.48;12.68;;;;;;;;;;4998723;28;20734;-52
2023/02/17 12:54:29;;;;;;;14.40;13.60;;;;;;;;;;4995828;28;20467;-50
2023/02/17 12:57:09;;;;;;;14.77;13.98;;;;;;;;;;4995808;28;20030;-51
2023/02/17 12:59:37;;;;;;;13.43;12.63;;;;;;;;;;4995520;28;20708;-52
2023/02/17 13:02:13;;;;;;;16.27;15.38;;;;;;;;;;4996789;28;20177;-56
2023/02/17 13:04:41;;;;;;;14.80;14.00;;;;;;;;;;4994789;28;20121;-56
2023/02/17 13:07:12;;;;;;;14.48;13.68;;;;;;;;;;4997134;28;20482;-53
2023/02/17 13:09:44;;;;;;;14.23;13.43;;;;;;;;;;4995812;28;20042;-53
2023/02/17 13:12:14;;;;;;;14.10;13.30;;;;;;;;;;4996139;28;20038;-56
2023/02/17 13:14:47;;;;;;;;;;;;;;;;;;4994689;28;20121;-56
2023/02/17 13:17:50;;;;;;;12.13;11.43;;;;;;;;;;4997678;28;20274;-49
2023/02/17 13:20:15;;;;;;;14.30;13.40;;;;;;;;;;4994421;28;20050;-54
2023/02/17 13:22:42;;;;;;;14.13;13.32;;;;;;;;;;4992671;28;20034;-52
2023/02/17 13:25:32;;;;;;;14.02;13.23;;;;;;;;;;4990420;28;20046;-50
2023/02/17 13:28:00;;;;;;;13.52;12.73;;;;;;;;;;4990543;28;20042;-57
2023/02/17 13:30:29;;;;;;;15.18;14.32;;;;;;;;;;4990412;28;20201;-53
2023/02/17 13:33:25;;;;;;;14.32;13.52;;;;;;;;;;4993725;28;20494;-57
2023/02/17 13:35:51;;;;;;;14.88;14.05;;;;;;;;;;4994034;28;20065;-58
2023/02/17 13:38:31;;;;;;;14.45;13.65;;;;;;;;;;4995083;28;20030;-57
2023/02/17 13:41:03;;;;;;;16.20;15.30;;;;;;;;;;4980957;28;20042;-57
2023/02/17 13:43:30;;;;;;;15.15;14.27;;;;;;;;;;4995738;28;20042;-57
2023/02/17 13:45:59;;;;;;;15.00;14.13;;;;;;;;;;4994169;28;20038;-57
2023/02/17 13:48:28;;;;;;;15.00;14.15;;;;;;;;;;4993531;28;20100;-57
2023/02/17 13:50:55;;;;;;;14.50;13.70;;;;;;;;;;4998481;28;20050;-53
2023/02/17 13:53:26;;;;;;;14.30;13.50;;;;;;;;;;4994904;28;20049;-48
2023/02/17 13:55:54;;;;;;;14.00;13.10;;;;;;;;;;4993968;28;20042;-51
2023/02/17 13:58:26;;;;;;;14.07;13.27;;;;;;;;;;4995033;28;20038;-53
2023/02/17 14:00:52;;;;;;;14.93;14.02;;;;;;;;;;4996743;28;20056;-52
2023/02/17 14:03:32;;;;;;;14.90;14.10;;;;;;;;;;4994243;28;20053;-51
2023/02/17 14:06:00;;;;;;;14.90;14.00;;;;;;;;;;4994747;28;20045;-57
2023/02/17 14:08:31;;;;;;;15.00;14.15;;;;;;;;;;4993880;28;20483;-52
2023/02/17 14:11:01;;;;;;;14.77;13.98;;;;;;;;;;4989904;28;20101;-51
2023/02/17 14:13:28;;;;;;;15.93;15.02;;;;;;;;;;4996809;28;20061;-51
2023/02/17 14:15:56;;;;;;;16.13;15.23;;;;;;;;;;4992214;28;20049;-57
2023/02/17 14:18:37;;;;;;;16.00;15.10;;;;;;;;;;4996239;28;20043;-52
2023/02/17 14:21:09;;;;;;;14.75;13.88;;;;;;;;;;4992903;28;20042;-53
2023/02/17 14:23:46;;;;;;;15.43;14.52;;;;;;;;;;4991062;28;20042;-56
2023/02/17 14:26:26;;;;;;;14.00;13.20;;;;;;;;;;4993442;28;20034;-50
2023/02/17 14:28:53;;;;;;;15.20;14.30;;;;;;;;;;4995869;28;20034;-56
2023/02/17 14:31:20;;;;;;;14.70;13.88;;;;;;;;;;4994462;28;20281;-51
2023/02/17 14:33:58;;;;;;;14.52;13.68;;;;;;;;;;4998245;28;20034;-49
2023/02/17 14:36:26;;;;;;;14.02;13.23;;;;;;;;;;4994789;28;20045;-50
2023/02/17 14:38:56;;;;;;;14.43;13.63;;;;;;;;;;4993290;28;20069;-50
2023/02/17 14:41:22;;;;;;;14.00;13.20;;;;;;;;;;4993931;28;20599;-56
2023/02/17 14:43:47;;;;;;;14.90;14.00;;;;;;;;;;4993888;28;20141;-56